Latest Weather Observations for Liawenee

IDT60801

Issued at 11:35 am EST Saturday 19 April 2014 (issued every 30 minutes, with the page automatically refreshed every 10 minutes)

About weather observations | Map of weather stations | Latest weather observations for TAS | Other Formats
Station Details ID: 096033 Name: LIAWENEE Lat: -41.90 Lon: 146.67 Height: 1057.0 m
Data from the previous 72 hours. | See also: Recent months at Liawenee
Date/Time
EST
Temp
°C
App
Temp
°C
Dew
Point
Rel
Hum
%
Delta-T
°C
Wind Press
QNH
hPa
Press
MSL
hPa
Rain
since 9 am
mm
Dir
 
Spd
km/h
Gust
km/h
Spd
kts
Gust
kts
19/11:30am 5.1 -1.2 1.8 79 1.4 SW 24 32 13 17 1015.1 - 0.0
19/11:00am 5.7 -1.3 1.8 76 1.7 SW 28 43 15 23 1015.0 - 0.0
19/10:30am 4.2 -2.9 1.2 81 1.3 SW 28 39 15 21 1015.0 - 0.0
19/10:00am 3.6 -3.9 1.3 85 1.0 SW 30 41 16 22 1014.8 - 0.0
19/09:30am 3.0 -4.1 1.2 88 0.7 SSW 28 37 15 20 1014.8 - 0.0
19/09:00am 3.0 -4.8 1.8 92 0.5 SW 32 39 17 21 1014.7 1014.7 1.0
19/08:30am 2.4 -3.9 1.7 95 0.3 SW 24 32 13 17 1014.6 - 1.0
19/08:00am 1.9 -4.0 1.5 97 0.2 SW 22 32 12 17 1014.5 - 1.0
19/07:30am 1.5 -4.9 1.1 97 0.2 SW 24 33 13 18 1014.2 - 1.0
19/07:00am 1.4 -5.8 0.7 95 0.3 SW 28 35 15 19 1013.7 - 1.0
19/06:30am 1.4 -5.1 0.5 94 0.4 SW 24 33 13 18 1013.5 - 1.0
19/06:00am 1.2 -6.1 0.0 92 0.5 SW 28 39 15 21 1013.4 1013.3 1.0
19/05:30am 1.5 -5.0 0.6 94 0.4 SW 24 39 13 21 1013.5 - 1.0
19/05:00am 1.4 -4.7 0.5 94 0.4 SW 22 30 12 16 1013.2 - 1.0
19/04:30am 1.5 -4.2 0.6 94 0.4 SW 20 30 11 16 1013.2 - 1.0
19/04:00am 1.2 -4.3 0.3 94 0.4 SW 19 30 10 16 1012.9 - 1.0
19/03:30am 1.6 -4.4 1.0 96 0.2 SW 22 30 12 16 1013.0 - 1.0
19/03:00am 1.3 -5.2 0.6 95 0.3 SW 24 33 13 18 1012.6 1012.5 1.0
19/02:30am 1.6 -4.8 1.0 96 0.2 SW 24 32 13 17 1012.7 - 1.0
19/02:00am 1.6 -4.0 1.0 96 0.2 SW 20 33 11 18 1012.7 - 1.0
19/01:30am 1.7 -5.8 1.1 96 0.2 SW 30 43 16 23 1012.7 - 1.0
19/01:00am 1.5 -5.7 0.9 96 0.2 SW 28 39 15 21 1012.7 - 1.0
19/12:30am 1.6 -4.8 1.0 96 0.2 SW 24 33 13 18 1012.7 - 1.0
19/12:00am 1.4 -6.2 0.5 94 0.4 WSW 30 41 16 22 1012.5 1012.4 1.0
 
Date/Time
EST
Temp
°C
App
Temp
°C
Dew
Point
Rel
Hum
%
Delta-T
°C
Wind Press
QNH
hPa
Press
MSL
hPa
Rain
since 9 am
mm
Dir
 
Spd
km/h
Gust
km/h
Spd
kts
Gust
kts
18/11:38pm 1.6 -6.5 0.7 94 0.4 SW 33 52 18 28 1012.6 - 1.0
18/11:30pm 1.7 -6.8 0.8 94 0.4 SW 35 50 19 27 1012.7 - 1.0
18/11:00pm 1.8 -6.1 0.8 93 0.4 SW 32 43 17 23 1012.6 - 1.0
18/10:30pm 2.1 -6.5 0.5 89 0.6 SW 35 46 19 25 1012.5 - 1.0
18/10:00pm 1.8 -7.6 0.0 88 0.7 SW 39 57 21 31 1012.4 - 1.0
18/09:30pm 2.1 -7.3 0.2 87 0.8 SW 39 50 21 27 1012.4 - 1.0
18/09:00pm 2.0 -6.0 0.5 90 0.6 SW 32 44 17 24 1012.4 1012.3 1.0
18/08:30pm 2.2 -6.0 0.6 89 0.6 SW 33 46 18 25 1012.2 - 1.0
18/08:00pm 2.5 -5.0 1.5 93 0.4 SW 30 43 16 23 1012.1 - 1.0
18/07:30pm 2.8 -5.2 1.5 91 0.5 SW 33 46 18 25 1012.0 - 1.0
18/07:00pm 3.0 -5.0 1.4 89 0.7 SW 33 48 18 26 1011.7 - 1.0
18/06:30pm 3.2 -4.2 1.7 90 0.6 WSW 30 39 16 21 1011.4 - 1.0
18/06:00pm 3.5 -4.3 1.4 86 0.9 WSW 32 43 17 23 1011.1 1010.9 1.0
18/05:30pm 3.2 -4.9 0.8 84 1.0 SW 33 46 18 25 1010.5 - 1.0
18/05:00pm 3.8 -4.3 1.0 82 1.2 WSW 33 44 18 24 1010.1 - 1.0
18/04:30pm 4.5 -5.2 0.8 77 1.5 SW 41 63 22 34 1009.6 - 1.0
18/04:27pm 4.7 -4.2 1.0 77 1.5 SW 37 63 20 34 1009.6 - 1.0
18/04:00pm 5.4 -2.2 2.6 82 1.2 SW 32 46 17 25 1009.5 - 1.0
18/03:30pm 5.5 -3.3 1.6 76 1.7 SW 37 54 20 29 1009.2 - 1.0
18/03:01pm 7.7 -0.8 3.4 74 2.0 WSW 37 56 20 30 1008.9 - 1.0
18/03:00pm 7.4 -1.5 2.9 73 2.0 WSW 39 56 21 30 1008.9 1008.7 1.0
18/02:38pm 7.1 -1.0 3.5 78 1.6 SW 35 54 19 29 1008.9 - 1.0
18/02:30pm 7.0 -1.8 3.6 79 1.5 SW 39 54 21 29 1008.8 - 1.0
18/02:21pm 7.0 -1.2 2.9 75 1.8 SW 35 54 19 29 1008.8 - 1.0
18/02:00pm 5.6 -3.8 2.6 81 1.3 SW 41 54 22 29 1008.6 - 1.0
18/01:35pm 5.8 -2.5 2.4 79 1.5 SSW 35 54 19 29 1008.4 - 1.0
18/01:30pm 6.7 -1.8 3.3 79 1.5 SW 37 52 20 28 1008.2 - 1.0
18/01:15pm 6.6 -2.1 2.3 74 1.9 SW 37 57 20 31 1008.2 - 1.0
18/01:00pm 5.8 -2.7 3.1 83 1.2 SW 37 52 20 28 1008.4 - 1.0
18/12:45pm 5.4 -3.1 3.3 86 0.9 WSW 37 61 20 33 1008.5 - 1.0
18/12:30pm 4.7 -3.4 3.2 90 0.7 SW 35 52 19 28 1008.4 - 1.0
18/12:26pm 4.9 -2.8 3.4 90 0.7 SW 33 52 18 28 1008.4 - 1.0
18/12:22pm 4.8 -2.7 3.6 92 0.5 SW 32 44 17 24 1008.3 - 1.0
18/12:00pm 4.4 -0.9 3.2 92 0.5 WSW 20 26 11 14 1009.1 1008.9 0.8
18/11:30am 4.3 0.0 3.3 93 0.4 SW 15 22 8 12 1009.8 - 0.8
18/11:00am 3.9 -2.6 2.9 93 0.4 WSW 26 37 14 20 1010.1 - 0.8
18/10:30am 4.5 -3.6 3.3 92 0.5 WSW 35 50 19 27 1010.7 - 0.6
18/10:00am 5.3 -4.4 4.1 92 0.5 WSW 44 69 24 37 1010.3 - 0.4
18/09:56am 5.5 -4.1 4.3 92 0.5 WSW 44 69 24 37 1010.2 - 0.4
18/09:46am 7.0 -1.9 5.3 89 0.8 W 41 65 22 35 1009.9 - 0.4
18/09:44am 7.4 -1.0 5.7 89 0.8 W 39 50 21 27 1009.6 - 0.2
18/09:30am 8.4 5.6 7.0 91 0.7 NNW 11 20 6 11 1009.1 - 0.0
18/09:00am 10.0 6.1 5.4 73 2.2 NW 15 22 8 12 1008.9 1008.7 0.0
18/08:30am 9.7 6.2 5.3 74 2.1 NW 13 26 7 14 1009.5 - 0.0
18/08:00am 8.5 5.1 6.1 85 1.2 NW 13 22 7 12 1010.0 - 0.0
18/07:30am 8.2 4.8 6.0 86 1.1 NW 13 28 7 15 1010.4 - 0.0
18/07:00am 8.1 4.0 6.4 89 0.8 WNW 17 24 9 13 1010.7 - 0.0
18/06:30am 7.6 4.5 5.7 88 0.9 N 11 24 6 13 1010.4 - 0.0
18/06:00am 7.8 3.6 5.9 88 0.9 NNW 17 26 9 14 1010.9 1010.7 0.0
18/05:30am 7.9 4.2 6.5 91 0.7 WNW 15 26 8 14 1011.3 - 0.0
18/05:00am 8.1 4.2 6.9 92 0.6 WNW 17 26 9 14 1011.7 - 0.0
18/04:30am 8.7 4.3 6.5 86 1.1 NW 19 26 10 14 1011.9 - 0.0
18/04:00am 8.7 4.2 6.2 84 1.2 NW 19 30 10 16 1012.1 - 0.0
18/03:30am 8.4 3.7 5.9 84 1.2 NNW 20 33 11 18 1012.5 - 0.0
18/03:00am 8.5 3.7 5.4 81 1.5 NW 20 35 11 19 1013.2 1013.1 0.0
18/02:30am 8.4 2.8 5.3 81 1.5 NW 24 46 13 25 1013.3 - 0.0
18/02:00am 8.2 4.8 5.7 84 1.2 NW 13 28 7 15 1013.9 - 0.0
18/01:30am 7.9 3.6 5.4 84 1.2 NW 17 30 9 16 1014.3 - 0.0
18/01:00am 7.9 5.5 5.4 84 1.2 N 7 17 4 9 1014.7 - 0.0
18/12:30am 8.2 5.4 5.3 82 1.4 N 9 19 5 10 1015.3 - 0.0
18/12:00am 8.4 3.9 5.9 84 1.2 NW 19 28 10 15 1015.8 1015.8 0.0
 
Date/Time
EST
Temp
°C
App
Temp
°C
Dew
Point
Rel
Hum
%
Delta-T
°C
Wind Press
QNH
hPa
Press
MSL
hPa
Rain
since 9 am
mm
Dir
 
Spd
km/h
Gust
km/h
Spd
kts
Gust
kts
17/11:30pm 8.1 5.5 6.1 87 1.0 N 9 17 5 9 1016.1 - 0.0
17/11:00pm 7.4 4.8 5.9 90 0.7 N 9 13 5 7 1016.6 - 0.0
17/10:30pm 7.3 3.8 5.4 88 0.9 N 13 22 7 12 1017.2 - 0.0
17/10:00pm 7.3 4.3 5.8 90 0.7 N 11 17 6 9 1017.6 - 0.0
17/09:30pm 8.0 5.2 6.8 92 0.6 NNW 11 19 6 10 1017.8 - 0.0
17/09:00pm 8.2 6.4 7.0 92 0.6 N 6 13 3 7 1018.1 1018.1 0.0
17/08:30pm 8.4 6.3 6.5 88 0.9 N 7 13 4 7 1018.1 - 0.0
17/08:00pm 8.3 5.8 6.4 88 0.9 N 9 13 5 7 1018.2 - 0.0
17/07:30pm 8.2 5.2 6.2 87 1.0 NNE 11 15 6 8 1018.3 - 0.0
17/07:00pm 8.4 5.4 6.2 86 1.1 N 11 15 6 8 1018.4 - 0.0
17/06:30pm 8.3 4.9 6.1 86 1.1 N 13 22 7 12 1018.4 - 0.0
17/06:00pm 8.2 5.5 5.5 83 1.3 NNW 9 15 5 8 1018.5 1018.5 0.0
17/05:30pm 8.7 5.6 5.6 81 1.5 NNW 11 19 6 10 1018.5 - 0.0
17/05:00pm 8.9 5.8 5.6 80 1.6 N 11 20 6 11 1018.2 - 0.0
17/04:30pm 9.9 6.5 5.9 76 2.0 NNW 13 22 7 12 1018.4 - 0.0
17/04:00pm 10.5 6.6 5.3 70 2.5 NNW 15 30 8 16 1018.6 - 0.0
17/03:30pm 10.0 7.0 6.0 76 2.0 NNW 11 19 6 10 1019.1 - 0.0
17/03:00pm 10.9 7.2 6.3 73 2.3 NNW 15 22 8 12 1019.3 1019.3 0.0
17/02:30pm 10.6 7.7 6.7 77 2.0 NNW 11 19 6 10 1019.7 - 0.0
17/02:00pm 10.0 6.7 6.2 77 1.9 NNW 13 20 7 11 1019.8 - 0.0
17/01:30pm 10.8 6.1 5.1 68 2.8 N 19 28 10 15 1019.8 - 0.0
17/01:00pm 10.7 7.0 6.1 73 2.3 N 15 24 8 13 1020.2 - 0.0
17/12:30pm 10.3 6.2 6.3 76 2.0 NNW 17 24 9 13 1020.5 - 0.0
17/12:00pm 10.7 6.4 5.3 69 2.6 N 17 28 9 15 1020.9 1021.0 0.0
17/11:30am 11.1 7.7 6.0 71 2.5 NNW 13 20 7 11 1020.8 - 0.0
17/11:00am 9.7 5.5 5.7 76 1.9 N 17 26 9 14 1020.8 - 0.0
17/10:30am 10.1 7.1 6.1 76 2.0 N 11 17 6 9 1020.9 - 0.0
17/10:00am 9.0 5.7 6.3 83 1.3 N 13 22 7 12 1021.1 - 0.0
17/09:30am 8.8 5.7 7.4 91 0.7 NNE 13 24 7 13 1021.1 - 0.0
17/09:00am 8.2 5.0 6.7 90 0.7 NNE 13 19 7 10 1020.9 1021.0 0.0
17/08:30am 8.0 5.1 6.5 90 0.7 N 11 20 6 11 1021.2 - 0.0
17/08:00am 7.7 5.2 6.6 93 0.5 NNE 9 13 5 7 1020.9 - 0.0
17/07:30am 7.1 4.9 6.0 93 0.5 N 7 13 4 7 1020.9 - 0.0
17/07:00am 5.9 4.8 4.9 93 0.5 CALM 0 6 0 3 1020.6 - 0.0
17/06:30am 6.5 4.4 5.6 94 0.4 N 6 7 3 4 1020.7 - 0.0
17/06:00am 6.5 5.5 5.5 93 0.5 CALM 0 0 0 0 1020.4 1020.5 0.0
17/05:30am 6.4 4.6 5.2 92 0.6 NNE 4 9 2 5 1020.1 - 0.0
17/05:00am 6.0 3.5 4.8 92 0.6 N 7 13 4 7 1020.3 - 0.0
17/04:30am 6.2 3.6 4.2 87 0.9 N 7 11 4 6 1020.4 - 0.0
17/04:00am 7.2 4.4 5.3 88 0.9 N 9 15 5 8 1020.3 - 0.0
17/03:30am 6.8 4.4 5.3 90 0.7 NNE 7 11 4 6 1020.2 - 0.0
17/03:00am 6.5 5.0 5.0 90 0.7 N 2 6 1 3 1020.4 1020.5 0.0
17/02:30am 5.9 3.4 4.5 91 0.6 NW 7 13 4 7 1020.6 - 0.0
17/02:00am 6.6 3.4 5.2 91 0.7 N 11 17 6 9 1020.3 - 0.0
17/01:30am 6.7 3.5 5.2 90 0.7 NNE 11 19 6 10 1020.3 - 0.0
17/01:00am 7.4 4.7 5.5 88 0.9 N 9 13 5 7 1020.8 - 0.0
17/12:30am 7.7 5.0 5.5 86 1.0 N 9 15 5 8 1020.9 - 0.0
17/12:00am 7.7 5.1 6.2 90 0.7 N 9 15 5 8 1020.9 1021.0 0.0
 
Date/Time
EST
Temp
°C
App
Temp
°C
Dew
Point
Rel
Hum
%
Delta-T
°C
Wind Press
QNH
hPa
Press
MSL
hPa
Rain
since 9 am
mm
Dir
 
Spd
km/h
Gust
km/h
Spd
kts
Gust
kts
16/11:30pm 7.6 4.2 6.1 90 0.7 N 13 20 7 11 1021.1 - 0.0
16/11:00pm 7.5 5.3 6.1 91 0.7 NNW 7 13 4 7 1021.4 - 0.0
16/10:30pm 7.3 5.1 6.1 92 0.6 N 7 13 4 7 1021.4 - 0.0
16/10:00pm 6.6 4.2 5.4 92 0.6 N 7 9 4 5 1021.1 - 0.0
16/09:30pm 7.2 4.9 5.5 89 0.8 N 7 11 4 6 1021.1 - 0.0
16/09:00pm 6.0 3.1 4.6 91 0.6 NNW 9 11 5 6 1021.2 1021.3 0.0
16/08:30pm 6.2 3.3 4.7 90 0.7 NNW 9 11 5 6 1021.1 - 0.0
16/08:00pm 7.0 4.5 5.0 87 0.9 N 7 9 4 5 1021.1 - 0.0
16/07:30pm 6.0 3.0 4.0 87 0.9 NNW 9 11 5 6 1020.9 - 0.0
16/07:00pm 5.7 3.0 3.5 86 1.0 NNW 7 9 4 5 1021.1 - 0.0
16/06:30pm 5.6 3.8 3.4 86 1.0 NW 2 7 1 4 1021.1 - 0.0
16/06:00pm 7.8 5.2 4.4 79 1.6 WNW 7 11 4 6 1020.9 1021.0 0.0
16/05:30pm 9.2 6.9 4.8 74 2.1 NW 6 9 3 5 1021.1 - 0.0
16/05:00pm 9.6 7.1 4.6 71 2.4 NW 7 11 4 6 1020.8 - 0.0
16/04:30pm 9.8 6.5 4.4 69 2.6 NNW 11 19 6 10 1020.7 - 0.0
16/04:00pm 10.0 6.7 4.4 68 2.7 N 11 19 6 10 1020.8 - 0.0
16/03:30pm 10.3 7.1 4.9 69 2.6 N 11 20 6 11 1020.8 - 0.0
16/03:00pm 10.6 6.7 5.4 70 2.5 N 15 20 8 11 1020.9 1021.0 0.0
16/02:30pm 11.0 6.8 5.5 69 2.7 N 17 24 9 13 1021.1 - 0.0
16/02:00pm 11.9 8.3 4.9 62 3.4 N 13 20 7 11 1021.1 - 0.0
16/01:30pm 12.3 7.9 5.0 61 3.6 N 17 26 9 14 1020.9 - 0.0
16/01:00pm 11.4 6.6 4.8 64 3.2 NNW 19 28 10 15 1021.3 - 0.0
16/12:30pm 11.0 7.0 4.9 66 2.9 N 15 30 8 16 1021.4 - 0.0
16/12:00pm 11.0 7.0 5.1 67 2.9 N 15 26 8 14 1021.8 1022.0 0.0

Other Formats:

Comma delimited format used in spreadsheet applications
http://www.bom.gov.au/fwo/IDT60801/IDT60801.95959.axf

JavaScript Object Notation format (JSON) in row-major order
http://www.bom.gov.au/fwo/IDT60801/IDT60801.95959.json